Currently 67°F in Simi Valley, California, USA
67°F
78°F / 50°F
calm
0.00"
Wednesday, January 17, 2018 6:03 PM PST

Simi Valley, California Weather Summary
Last 36 Hours

Temperature Winds Hourly Humidity Dewpoint
Time Report Norm Report Norm Max Gusts Precip. Rpt. Norm Rpt. Norm Pressure
1Wed 06:03 PM  67.4°F  60°F  calm  4 mph  7 mph  0.00"  53%  50%  49°F  41°F  30.09"
Wed 06:00 PM  67.6°F  60°F  calm  4 mph  9 mph  0.00"  53%  50%  49°F  41°F  30.09"
Wed 05:00 PM  73.0°F  63°F  1 mph NW  5 mph  10 mph  0.00"  46%  46%  50°F  41°F  30.08"
Wed 04:00 PM  77.4°F  65°F  5 mph SE  6 mph  20 mph  0.00"  27%  42%  39°F  41°F  30.08"
Wed 03:00 PM  77.4°F  67°F  3 mph N  6 mph  19 mph  0.00"  27%  40%  39°F  40°F  30.08"
2Wed 02:14 PM  78.1°F  67°F  3 mph W  6 mph  16 mph  ----  28%  39%  41°F  40°F  30.09"
Wed 02:00 PM  77.8°F  67°F  2 mph N  6 mph  19 mph  0.00"  28%  39%  41°F  40°F  30.09"
Wed 01:00 PM  76.4°F  66°F  9 mph SW  6 mph  21 mph  0.00"  30%  39%  41°F  40°F  30.11"
Wed 12:00 PM  73.6°F  65°F  9 mph S  6 mph  20 mph  0.00"  32%  41%  41°F  40°F  30.14"
Wed 11:00 AM  73.5°F  63°F  8 mph SW  6 mph  19 mph  0.00"  35%  43%  43°F  40°F  30.16"
Wed 10:00 AM  70.6°F  61°F  12 mph E  5 mph  18 mph  0.00"  38%  48%  43°F  40°F  30.16"
Wed 09:00 AM  66.3°F  57°F  1 mph NE  5 mph  10 mph  0.00"  48%  53%  45°F  39°F  30.16"
Wed 08:00 AM  57.2°F  53°F  5 mph W  5 mph  11 mph  0.00"  63%  56%  44°F  37°F  30.14"
Wed 07:00 AM  50.0°F  52°F  5 mph S  5 mph  10 mph  0.00"  74%  56%  42°F  36°F  30.13"
3Wed 06:16 AM  49.7°F  52°F  calm  5 mph  8 mph  ----  75%  56%  42°F  36°F  30.12"
Wed 06:00 AM  50.0°F  52°F  calm  5 mph  1 mph  0.00"  75%  56%  42°F  36°F  30.11"
Wed 05:00 AM  49.8°F  52°F  calm  5 mph  9 mph  0.00"  75%  55%  42°F  36°F  30.09"
Wed 04:00 AM  50.4°F  53°F  calm  5 mph  none  0.00"  75%  55%  42°F  36°F  30.10"
Wed 03:00 AM  51.6°F  53°F  calm  5 mph  none  0.00"  73%  55%  43°F  37°F  30.11"
Wed 02:00 AM  52.5°F  53°F  calm  5 mph  9 mph  0.00"  72%  55%  43°F  37°F  30.11"
Wed 01:00 AM  53.1°F  54°F  3 mph S  5 mph  7 mph  0.00"  71%  55%  44°F  37°F  30.11"
Wed 12:00 AM  53.9°F  54°F  calm  5 mph  9 mph  0.00"  72%  55%  45°F  38°F  30.11"
Tue 11:00 PM  55.0°F  55°F  5 mph E  5 mph  5 mph  0.00"  75%  55%  47°F  38°F  30.12"
Tue 10:00 PM  56.2°F  55°F  calm  5 mph  6 mph  0.00"  76%  54%  48°F  39°F  30.11"
Tue 09:00 PM  57.9°F  56°F  calm  5 mph  9 mph  0.00"  75%  54%  50°F  39°F  30.11"
Tue 08:00 PM  59.4°F  57°F  calm  4 mph  9 mph  0.00"  71%  53%  50°F  39°F  30.09"
Tue 07:00 PM  59.8°F  58°F  calm  4 mph  10 mph  0.00"  70%  52%  50°F  40°F  30.10"
Tue 06:00 PM  62.3°F  60°F  3 mph E  4 mph  13 mph  0.00"  70%  50%  52°F  41°F  30.09"
Tue 05:00 PM  66.4°F  62°F  1 mph N  5 mph  8 mph  0.00"  52%  46%  47°F  41°F  30.06"
Tue 04:00 PM  69.8°F  65°F  2 mph E  6 mph  9 mph  0.00"  44%  43%  46°F  41°F  30.07"
Tue 03:00 PM  71.2°F  66°F  3 mph W  6 mph  10 mph  0.00"  40%  40%  45°F  41°F  30.07"
Tue 02:00 PM  69.8°F  67°F  3 mph E  6 mph  10 mph  0.00"  40%  39%  44°F  40°F  30.07"
Tue 01:00 PM  69.4°F  66°F  1 mph N  7 mph  10 mph  0.00"  42%  40%  44°F  40°F  30.09"
Tue 12:00 PM  68.0°F  65°F  calm  6 mph  10 mph  0.00"  43%  42%  44°F  40°F  30.11"
Tue 11:00 AM  65.1°F  63°F  calm  6 mph  9 mph  0.00"  51%  44%  46°F  40°F  30.14"
Tue 10:00 AM  61.3°F  60°F  6 mph E  5 mph  10 mph  0.00"  62%  49%  48°F  40°F  30.15"
Tue 09:00 AM  56.1°F  56°F  calm  5 mph  9 mph  0.00"  71%  55%  46°F  40°F  30.13"
Tue 08:00 AM  51.8°F  52°F  calm  5 mph  7 mph  0.00"  74%  58%  44°F  37°F  30.11"
Tue 07:00 AM  50.9°F  51°F  calm  4 mph  8 mph  0.00"  74%  58%  43°F  37°F  30.09"

  1. Current weather data. No green row appears if the current weather data is also the high or low for the current day.
  2. High temperature for the current day.
  3. Low temperature for the current day.

The Simi Valley, California weather pages are a service of WeatherCurrents.
Copyright ©Wed Jan 17 18:04:35 PST 2018  WeatherCurrents. All rights reserved. - Submit questions and comments - Privacy Policy

This page automatically refreshes every 10 minutes.